Sara Regina — ERYP — position and weather

sailwx.info

Track history (hours):
 
Tides and Currents Weather Stations Pressure Air Temp Water Temp Dewpoint Dewpoint Depression Visibility Wind Speed Wind Dir Waves Ship Positions

Sara Regina

Last reported at 2017-Dec-08 22:04 UTC. Time now 2017-Dec-13 09:25 UTC.
Position N 25°20' W 079°50'.

Length 91 m; draft 4.5 m.

Type: Cargo ship. MMSI: 214182516.

Date/timePositionNaut miles runAvg speedWind from/ knotsBaromVisibWave heightAir tempDewpointWater temp
2017-Dec-08 22:04N 25°20' W 079°50'1 9.8
2017-Dec-08 21:59N 25°21' W 079°51'5 9.6
2017-Dec-08 21:30N 25°25' W 079°53'5 9.5
2017-Dec-08 21:00N 25°30' W 079°55'5 9.6
2017-Dec-08 20:30N 25°34' W 079°57'510.3
2017-Dec-08 20:00N 25°39' W 079°60'510.7
2017-Dec-08 19:30N 25°43' W 080°03'4 8.5
2017-Dec-08 19:00N 25°46' W 080°07'3 6.8
2017-Dec-08 18:30N 25°46' W 080°10'1 2.4
2017-Dec-08 18:00N 25°46' W 080°12'1 2.5
2017-Dec-08 17:31N 25°47' W 080°13'1 2.5
2017-Dec-08 17:00N 25°47' W 080°14'1 1.6
2017-Dec-08 16:30N 25°48' W 080°15'0 0.0
2017-Dec-08 16:00N 25°48' W 080°15'0 0.0
2017-Dec-08 15:30N 25°48' W 080°15'0 0.0
2017-Dec-08 15:00N 25°48' W 080°15'0 0.0
2017-Dec-08 14:30N 25°48' W 080°15'0 0.0
2017-Dec-08 13:51N 25°48' W 080°15'0 0.0
2017-Dec-08 13:30N 25°48' W 080°15'0 0.0
2017-Dec-08 13:00N 25°48' W 080°15'0 0.0
2017-Dec-08 12:30N 25°48' W 080°15'0 0.0
2017-Dec-08 11:54N 25°48' W 080°15'0 0.0
2017-Dec-08 11:24N 25°48' W 080°15'0 0.0
2017-Dec-08 11:00N 25°48' W 080°15'0 0.0
2017-Dec-08 10:30N 25°48' W 080°15'0 0.0
2017-Dec-08 10:00N 25°48' W 080°15'0 0.0
2017-Dec-08 09:24N 25°48' W 080°15'0 0.0
2017-Dec-08 09:00N 25°48' W 080°15'0 0.0
2017-Dec-08 08:27N 25°48' W 080°15'0 0.0
2017-Dec-08 08:00N 25°48' W 080°15'0 0.0
2017-Dec-08 07:27N 25°48' W 080°15'0 0.0
2017-Dec-08 07:00N 25°48' W 080°15'0 0.0
2017-Dec-08 06:30N 25°48' W 080°15'0 0.0
2017-Dec-08 05:57N 25°48' W 080°15'0 0.0
2017-Dec-08 05:30N 25°48' W 080°15'0 0.0
2017-Dec-08 04:57N 25°48' W 080°15'0 0.0
2017-Dec-08 04:30N 25°48' W 080°15'0 0.0
2017-Dec-08 04:00N 25°48' W 080°15'0 0.0
2017-Dec-08 03:30N 25°48' W 080°15'0 0.0
2017-Dec-08 03:00N 25°48' W 080°15'0 0.0
2017-Dec-08 02:30N 25°48' W 080°15'0 0.0
2017-Dec-08 02:00N 25°48' W 080°15'0 0.0
2017-Dec-08 01:30N 25°48' W 080°15'0 0.0
2017-Dec-08 01:00N 25°48' W 080°15'0 0.0
2017-Dec-08 00:30N 25°48' W 080°15'0 0.0
2017-Dec-08 00:00N 25°48' W 080°15'0 0.0
2017-Dec-07 23:30N 25°48' W 080°15'0 0.0
2017-Dec-07 23:00N 25°48' W 080°15'0 0.0
2017-Dec-07 22:30N 25°48' W 080°15'0 0.0
2017-Dec-07 22:00N 25°48' W 080°15'0 0.0
2017-Dec-07 21:30N 25°48' W 080°15'0 0.0
2017-Dec-07 21:00N 25°48' W 080°15'0 0.0
2017-Dec-07 20:30N 25°48' W 080°15'0 0.0
2017-Dec-07 20:00N 25°48' W 080°15'0 0.0
2017-Dec-07 19:30N 25°48' W 080°15'0 0.0
2017-Dec-07 19:00N 25°48' W 080°15'0 0.0
2017-Dec-07 18:30N 25°48' W 080°15'0 0.0
2017-Dec-07 18:00N 25°48' W 080°15'0 0.0
2017-Dec-07 17:30N 25°48' W 080°15'0 0.0
2017-Dec-07 17:00N 25°48' W 080°15'0 0.0
2017-Dec-07 16:30N 25°48' W 080°15'0 0.0
2017-Dec-07 15:54N 25°48' W 080°15'0 0.0
2017-Dec-07 15:29N 25°48' W 080°15'0 0.0
2017-Dec-07 14:59N 25°48' W 080°15'0 0.0
2017-Dec-07 14:29N 25°48' W 080°15'0 0.0
2017-Dec-07 13:59N 25°48' W 080°15'0 0.0
2017-Dec-07 13:29N 25°48' W 080°15'0 0.0
2017-Dec-07 12:59N 25°48' W 080°15'0 0.0
2017-Dec-07 12:29N 25°48' W 080°15'0 0.0
2017-Dec-07 11:59N 25°48' W 080°15'0 0.0
2017-Dec-07 11:29N 25°48' W 080°15'0 0.0
2017-Dec-07 10:59N 25°48' W 080°15'0 0.0
2017-Dec-07 10:29N 25°48' W 080°15'0 0.0
2017-Dec-07 09:59N 25°48' W 080°15'0 0.0
2017-Dec-07 09:29N 25°48' W 080°15'0 0.0
2017-Dec-07 08:59N 25°48' W 080°15'0 0.0
2017-Dec-07 08:23N 25°48' W 080°15'0 0.0
2017-Dec-07 07:59N 25°48' W 080°15'0 0.0
2017-Dec-07 07:29N 25°48' W 080°15'0 0.0
2017-Dec-07 06:56N 25°48' W 080°15'0 0.0
2017-Dec-07 06:29N 25°48' W 080°15'0 0.0
2017-Dec-07 05:53N 25°48' W 080°15'0 0.0
2017-Dec-07 05:26N 25°48' W 080°15'0 0.0
2017-Dec-07 04:59N 25°48' W 080°15'0 0.0
2017-Dec-07 04:29N 25°48' W 080°15'0 0.0
2017-Dec-07 03:59N 25°48' W 080°15'0 0.0
2017-Dec-07 03:25N 25°48' W 080°15'0 0.1
2017-Dec-07 02:58N 25°48' W 080°15'0 0.6
2017-Dec-07 02:30N 25°48' W 080°15'1 2.4
2017-Dec-07 02:01N 25°47' W 080°13'1 2.8
2017-Dec-07 01:31N 25°46' W 080°12'1 2.4
2017-Dec-07 01:00N 25°46' W 080°11'4 7.3
2017-Dec-07 00:30N 25°45' W 080°07'2 3.7
2017-Dec-07 00:00N 25°47' W 080°06'0 0.2
2017-Dec-06 23:30N 25°47' W 080°05'0 0.3
2017-Dec-06 23:01N 25°47' W 080°06'3 5.5
2017-Dec-06 22:31N 25°45' W 080°04'5 9.1
2017-Dec-06 22:01N 25°41' W 080°01'612.1
2017-Dec-06 21:30N 25°35' W 079°59'612.3
2017-Dec-06 21:00N 25°29' W 079°56'  
2017-Nov-30 03:46N 25°24' W 079°53'3 9.7
2017-Nov-30 03:29N 25°26' W 079°55'510.2
2017-Nov-30 03:00N 25°30' W 079°57'510.5
2017-Nov-30 02:30N 25°35' W 079°60'510.8
2017-Nov-30 02:01N 25°40' W 080°02'611.0
2017-Nov-30 01:30N 25°45' W 080°05'4 8.5
2017-Nov-30 01:00N 25°46' W 080°10'1 2.7
2017-Nov-30 00:30N 25°46' W 080°11'1 2.3
2017-Nov-30 00:01N 25°47' W 080°12'1 2.7
2017-Nov-29 23:30N 25°47' W 080°14'1 2.1
2017-Nov-29 22:58N 25°48' W 080°15'0 0.1
2017-Nov-29 22:28N 25°48' W 080°15'0 0.0
2017-Nov-29 21:58N 25°48' W 080°15'0 0.0
2017-Nov-29 21:28N 25°48' W 080°15'0 0.0
2017-Nov-29 20:58N 25°48' W 080°15'0 0.0
2017-Nov-29 20:28N 25°48' W 080°15'0 0.0
2017-Nov-29 19:58N 25°48' W 080°15'0 0.0
2017-Nov-29 19:28N 25°48' W 080°15'0 0.0
2017-Nov-29 18:58N 25°48' W 080°15'0 0.0
2017-Nov-29 18:28N 25°48' W 080°15'0 0.0
2017-Nov-29 17:58N 25°48' W 080°15'0 0.0
2017-Nov-29 17:25N 25°48' W 080°15'0 0.0
2017-Nov-29 16:58N 25°48' W 080°15'0 0.0
2017-Nov-29 16:28N 25°48' W 080°15'0 0.0
2017-Nov-29 15:58N 25°48' W 080°15'0 0.0
2017-Nov-29 15:28N 25°48' W 080°15'0 0.0
2017-Nov-29 14:58N 25°48' W 080°15'0 0.0
2017-Nov-29 14:28N 25°48' W 080°15'0 0.0
2017-Nov-29 13:58N 25°48' W 080°15'0 0.0
2017-Nov-29 13:28N 25°48' W 080°15'0 0.0
2017-Nov-29 12:58N 25°48' W 080°15'0 0.0
2017-Nov-29 12:28N 25°48' W 080°15'0 0.0
2017-Nov-29 11:58N 25°48' W 080°15'0 0.0
2017-Nov-29 11:28N 25°48' W 080°15'0 0.0
2017-Nov-29 10:58N 25°48' W 080°15'0 0.0
2017-Nov-29 10:28N 25°48' W 080°15'0 0.0
2017-Nov-29 09:58N 25°48' W 080°15'0 0.0
2017-Nov-29 09:25N 25°48' W 080°15'0 0.0
2017-Nov-29 08:55N 25°48' W 080°15'0 0.0
2017-Nov-29 08:28N 25°48' W 080°15'0 0.0
2017-Nov-29 07:58N 25°48' W 080°15'0 0.0
2017-Nov-29 07:28N 25°48' W 080°15'0 0.0
2017-Nov-29 06:58N 25°48' W 080°15'0 0.0
2017-Nov-29 06:28N 25°48' W 080°15'0 0.0
2017-Nov-29 06:01N 25°48' W 080°15'0 0.0
2017-Nov-29 05:31N 25°48' W 080°15'0 0.0
2017-Nov-29 05:00N 25°48' W 080°15'0 0.0
2017-Nov-29 04:27N 25°48' W 080°15'0 0.0
2017-Nov-29 04:00N 25°48' W 080°15'0 0.0
2017-Nov-29 03:30N 25°48' W 080°15'0 0.0
2017-Nov-29 02:57N 25°48' W 080°15'0 0.0
2017-Nov-29 02:27N 25°48' W 080°15'0 0.0
2017-Nov-29 02:00N 25°48' W 080°15'0 0.0
2017-Nov-29 01:30N 25°48' W 080°15'0 0.0
2017-Nov-29 00:57N 25°48' W 080°15'0 0.0
2017-Nov-29 00:30N 25°48' W 080°15'0 0.0
2017-Nov-29 00:00N 25°48' W 080°15'0 0.0
2017-Nov-28 23:30N 25°48' W 080°15'0 0.0
2017-Nov-28 23:00N 25°48' W 080°15'0 0.0
2017-Nov-28 22:30N 25°48' W 080°15'  
Track history (hours):
 
Tides and Currents Weather Stations Pressure Air Temp Water Temp Dewpoint Dewpoint Depression Visibility Wind Speed Wind Dir Waves Ship Positions

Sara Regina

Last reported at 2017-Dec-08 22:04 UTC. Time now 2017-Dec-13 09:25 UTC.
Position N 25°20' W 079°50'.

Length 91 m; draft 4.5 m.

Type: Cargo ship. MMSI: 214182516.

Date/timePositionNaut miles runAvg speedWind from/ knotsBaromVisibWave heightAir tempDewpointWater temp
2017-Dec-08 22:04N 25°20' W 079°50'1 9.8
2017-Dec-08 21:59N 25°21' W 079°51'5 9.6
2017-Dec-08 21:30N 25°25' W 079°53'5 9.5
2017-Dec-08 21:00N 25°30' W 079°55'5 9.6
2017-Dec-08 20:30N 25°34' W 079°57'510.3
2017-Dec-08 20:00N 25°39' W 079°60'510.7
2017-Dec-08 19:30N 25°43' W 080°03'4 8.5
2017-Dec-08 19:00N 25°46' W 080°07'3 6.8
2017-Dec-08 18:30N 25°46' W 080°10'1 2.4
2017-Dec-08 18:00N 25°46' W 080°12'1 2.5
2017-Dec-08 17:31N 25°47' W 080°13'1 2.5
2017-Dec-08 17:00N 25°47' W 080°14'1 1.6
2017-Dec-08 16:30N 25°48' W 080°15'0 0.0
2017-Dec-08 16:00N 25°48' W 080°15'0 0.0
2017-Dec-08 15:30N 25°48' W 080°15'0 0.0
2017-Dec-08 15:00N 25°48' W 080°15'0 0.0
2017-Dec-08 14:30N 25°48' W 080°15'0 0.0
2017-Dec-08 13:51N 25°48' W 080°15'0 0.0
2017-Dec-08 13:30N 25°48' W 080°15'0 0.0
2017-Dec-08 13:00N 25°48' W 080°15'0 0.0
2017-Dec-08 12:30N 25°48' W 080°15'0 0.0
2017-Dec-08 11:54N 25°48' W 080°15'0 0.0
2017-Dec-08 11:24N 25°48' W 080°15'0 0.0
2017-Dec-08 11:00N 25°48' W 080°15'0 0.0
2017-Dec-08 10:30N 25°48' W 080°15'0 0.0
2017-Dec-08 10:00N 25°48' W 080°15'0 0.0
2017-Dec-08 09:24N 25°48' W 080°15'0 0.0
2017-Dec-08 09:00N 25°48' W 080°15'0 0.0
2017-Dec-08 08:27N 25°48' W 080°15'0 0.0
2017-Dec-08 08:00N 25°48' W 080°15'0 0.0
2017-Dec-08 07:27N 25°48' W 080°15'0 0.0
2017-Dec-08 07:00N 25°48' W 080°15'0 0.0
2017-Dec-08 06:30N 25°48' W 080°15'0 0.0
2017-Dec-08 05:57N 25°48' W 080°15'0 0.0
2017-Dec-08 05:30N 25°48' W 080°15'0 0.0
2017-Dec-08 04:57N 25°48' W 080°15'0 0.0
2017-Dec-08 04:30N 25°48' W 080°15'0 0.0
2017-Dec-08 04:00N 25°48' W 080°15'0 0.0
2017-Dec-08 03:30N 25°48' W 080°15'0 0.0
2017-Dec-08 03:00N 25°48' W 080°15'0 0.0
2017-Dec-08 02:30N 25°48' W 080°15'0 0.0
2017-Dec-08 02:00N 25°48' W 080°15'0 0.0
2017-Dec-08 01:30N 25°48' W 080°15'0 0.0
2017-Dec-08 01:00N 25°48' W 080°15'0 0.0
2017-Dec-08 00:30N 25°48' W 080°15'0 0.0
2017-Dec-08 00:00N 25°48' W 080°15'0 0.0
2017-Dec-07 23:30N 25°48' W 080°15'0 0.0
2017-Dec-07 23:00N 25°48' W 080°15'0 0.0
2017-Dec-07 22:30N 25°48' W 080°15'0 0.0
2017-Dec-07 22:00N 25°48' W 080°15'0 0.0
2017-Dec-07 21:30N 25°48' W 080°15'0 0.0
2017-Dec-07 21:00N 25°48' W 080°15'0 0.0
2017-Dec-07 20:30N 25°48' W 080°15'0 0.0
2017-Dec-07 20:00N 25°48' W 080°15'0 0.0
2017-Dec-07 19:30N 25°48' W 080°15'0 0.0
2017-Dec-07 19:00N 25°48' W 080°15'0 0.0
2017-Dec-07 18:30N 25°48' W 080°15'0 0.0
2017-Dec-07 18:00N 25°48' W 080°15'0 0.0
2017-Dec-07 17:30N 25°48' W 080°15'0 0.0
2017-Dec-07 17:00N 25°48' W 080°15'0 0.0
2017-Dec-07 16:30N 25°48' W 080°15'0 0.0
2017-Dec-07 15:54N 25°48' W 080°15'0 0.0
2017-Dec-07 15:29N 25°48' W 080°15'0 0.0
2017-Dec-07 14:59N 25°48' W 080°15'0 0.0
2017-Dec-07 14:29N 25°48' W 080°15'0 0.0
2017-Dec-07 13:59N 25°48' W 080°15'0 0.0
2017-Dec-07 13:29N 25°48' W 080°15'0 0.0
2017-Dec-07 12:59N 25°48' W 080°15'0 0.0
2017-Dec-07 12:29N 25°48' W 080°15'0 0.0
2017-Dec-07 11:59N 25°48' W 080°15'0 0.0
2017-Dec-07 11:29N 25°48' W 080°15'0 0.0
2017-Dec-07 10:59N 25°48' W 080°15'0 0.0
2017-Dec-07 10:29N 25°48' W 080°15'0 0.0
2017-Dec-07 09:59N 25°48' W 080°15'0 0.0
2017-Dec-07 09:29N 25°48' W 080°15'0 0.0
2017-Dec-07 08:59N 25°48' W 080°15'0 0.0
2017-Dec-07 08:23N 25°48' W 080°15'0 0.0
2017-Dec-07 07:59N 25°48' W 080°15'0 0.0
2017-Dec-07 07:29N 25°48' W 080°15'0 0.0
2017-Dec-07 06:56N 25°48' W 080°15'0 0.0
2017-Dec-07 06:29N 25°48' W 080°15'0 0.0
2017-Dec-07 05:53N 25°48' W 080°15'0 0.0
2017-Dec-07 05:26N 25°48' W 080°15'0 0.0
2017-Dec-07 04:59N 25°48' W 080°15'0 0.0
2017-Dec-07 04:29N 25°48' W 080°15'0 0.0
2017-Dec-07 03:59N 25°48' W 080°15'0 0.0
2017-Dec-07 03:25N 25°48' W 080°15'0 0.1
2017-Dec-07 02:58N 25°48' W 080°15'0 0.6
2017-Dec-07 02:30N 25°48' W 080°15'1 2.4
2017-Dec-07 02:01N 25°47' W 080°13'1 2.8
2017-Dec-07 01:31N 25°46' W 080°12'1 2.4
2017-Dec-07 01:00N 25°46' W 080°11'4 7.3
2017-Dec-07 00:30N 25°45' W 080°07'2 3.7
2017-Dec-07 00:00N 25°47' W 080°06'0 0.2
2017-Dec-06 23:30N 25°47' W 080°05'0 0.3
2017-Dec-06 23:01N 25°47' W 080°06'3 5.5
2017-Dec-06 22:31N 25°45' W 080°04'5 9.1
2017-Dec-06 22:01N 25°41' W 080°01'612.1
2017-Dec-06 21:30N 25°35' W 079°59'612.3
2017-Dec-06 21:00N 25°29' W 079°56'  
2017-Nov-30 03:46N 25°24' W 079°53'3 9.7
2017-Nov-30 03:29N 25°26' W 079°55'510.2
2017-Nov-30 03:00N 25°30' W 079°57'510.5
2017-Nov-30 02:30N 25°35' W 079°60'510.8
2017-Nov-30 02:01N 25°40' W 080°02'611.0
2017-Nov-30 01:30N 25°45' W 080°05'4 8.5
2017-Nov-30 01:00N 25°46' W 080°10'1 2.7
2017-Nov-30 00:30N 25°46' W 080°11'1 2.3
2017-Nov-30 00:01N 25°47' W 080°12'1 2.7
2017-Nov-29 23:30N 25°47' W 080°14'1 2.1
2017-Nov-29 22:58N 25°48' W 080°15'0 0.1
2017-Nov-29 22:28N 25°48' W 080°15'0 0.0
2017-Nov-29 21:58N 25°48' W 080°15'0 0.0
2017-Nov-29 21:28N 25°48' W 080°15'0 0.0
2017-Nov-29 20:58N 25°48' W 080°15'0 0.0
2017-Nov-29 20:28N 25°48' W 080°15'0 0.0
2017-Nov-29 19:58N 25°48' W 080°15'0 0.0
2017-Nov-29 19:28N 25°48' W 080°15'0 0.0
2017-Nov-29 18:58N 25°48' W 080°15'0 0.0
2017-Nov-29 18:28N 25°48' W 080°15'0 0.0
2017-Nov-29 17:58N 25°48' W 080°15'0 0.0
2017-Nov-29 17:25N 25°48' W 080°15'0 0.0
2017-Nov-29 16:58N 25°48' W 080°15'0 0.0
2017-Nov-29 16:28N 25°48' W 080°15'0 0.0
2017-Nov-29 15:58N 25°48' W 080°15'0 0.0
2017-Nov-29 15:28N 25°48' W 080°15'0 0.0
2017-Nov-29 14:58N 25°48' W 080°15'0 0.0
2017-Nov-29 14:28N 25°48' W 080°15'0 0.0
2017-Nov-29 13:58N 25°48' W 080°15'0 0.0
2017-Nov-29 13:28N 25°48' W 080°15'0 0.0
2017-Nov-29 12:58N 25°48' W 080°15'0 0.0
2017-Nov-29 12:28N 25°48' W 080°15'0 0.0
2017-Nov-29 11:58N 25°48' W 080°15'0 0.0
2017-Nov-29 11:28N 25°48' W 080°15'0 0.0
2017-Nov-29 10:58N 25°48' W 080°15'0 0.0
2017-Nov-29 10:28N 25°48' W 080°15'0 0.0
2017-Nov-29 09:58N 25°48' W 080°15'0 0.0
2017-Nov-29 09:25N 25°48' W 080°15'0 0.0
2017-Nov-29 08:55N 25°48' W 080°15'0 0.0
2017-Nov-29 08:28N 25°48' W 080°15'0 0.0
2017-Nov-29 07:58N 25°48' W 080°15'0 0.0
2017-Nov-29 07:28N 25°48' W 080°15'0 0.0
2017-Nov-29 06:58N 25°48' W 080°15'0 0.0
2017-Nov-29 06:28N 25°48' W 080°15'0 0.0
2017-Nov-29 06:01N 25°48' W 080°15'0 0.0
2017-Nov-29 05:31N 25°48' W 080°15'0 0.0
2017-Nov-29 05:00N 25°48' W 080°15'0 0.0
2017-Nov-29 04:27N 25°48' W 080°15'0 0.0
2017-Nov-29 04:00N 25°48' W 080°15'0 0.0
2017-Nov-29 03:30N 25°48' W 080°15'0 0.0
2017-Nov-29 02:57N 25°48' W 080°15'0 0.0
2017-Nov-29 02:27N 25°48' W 080°15'0 0.0
2017-Nov-29 02:00N 25°48' W 080°15'0 0.0
2017-Nov-29 01:30N 25°48' W 080°15'0 0.0
2017-Nov-29 00:57N 25°48' W 080°15'0 0.0
2017-Nov-29 00:30N 25°48' W 080°15'0 0.0
2017-Nov-29 00:00N 25°48' W 080°15'0 0.0
2017-Nov-28 23:30N 25°48' W 080°15'0 0.0
2017-Nov-28 23:00N 25°48' W 080°15'0 0.0
2017-Nov-28 22:30N 25°48' W 080°15'  

Dump ship's entire track history